Time;durP1;ratioP1;P1;durP2;ratioP2;P2;SDS_P1;SDS_P2;PMS_P1;PMS_P2;Temp;Humidity;BMP_temperature;BMP_pressure;BME280_temperature;BME280_humidity;BME280_pressure;Samples;Min_cycle;Max_cycle;Signal;HPM_P1;HPM_P2
2023/05/18 00:01:46;;;;;;;7.63;2.23;;;;;;;9.29;57.39;99691.59;4938757;28;39912;-77
2023/05/18 00:04:16;;;;;;;6.77;2.30;;;;;;;9.26;57.42;99695.25;4954962;28;41695;-79
2023/05/18 00:06:43;;;;;;;5.90;2.50;;;;;;;9.23;57.40;99697.16;4954667;28;41709;-79
2023/05/18 00:09:10;;;;;;;5.07;2.23;;;;;;;9.19;57.66;99693.78;4954867;28;42539;-80
2023/05/18 00:11:39;;;;;;;5.70;2.30;;;;;;;9.17;57.58;99695.63;4971025;28;41845;-78
2023/05/18 00:14:07;;;;;;;4.93;2.20;;;;;;;9.13;57.46;99694.06;4955621;28;41997;-79
2023/05/18 00:16:35;;;;;;;4.67;2.80;;;;;;;9.08;57.99;99689.88;4971769;28;43743;-78
2023/05/18 00:19:03;;;;;;;5.07;2.07;;;;;;;9.08;57.66;99695.16;4955679;28;42274;-78
2023/05/18 00:21:32;;;;;;;4.57;2.03;;;;;;;9.02;57.96;99691.03;4955648;28;40946;-78
2023/05/18 00:24:00;;;;;;;7.43;2.30;;;;;;;8.98;58.16;99685.00;4939666;28;42067;-78
2023/05/18 00:26:27;;;;;;;5.03;2.07;;;;;;;8.92;58.15;99695.81;4955456;28;43172;-78
2023/05/18 00:28:55;;;;;;;5.47;2.20;;;;;;;8.55;58.34;99635.75;4972923;28;43167;-77
2023/05/18 00:31:24;;;;;;;3.73;2.40;;;;;;;8.88;59.04;99693.41;4955443;28;41112;-80
2023/05/18 00:33:51;;;;;;;6.83;2.70;;;;;;;8.85;59.19;99699.66;4955722;28;41751;-77
2023/05/18 00:36:20;;;;;;;6.10;2.33;;;;;;;8.79;60.04;99693.75;4969917;28;43516;-79
2023/05/18 00:38:48;;;;;;;6.40;2.83;;;;;;;8.78;59.51;99700.00;4954475;28;41566;-78
2023/05/18 00:41:15;;;;;;;4.13;2.07;;;;;;;8.74;59.68;99696.59;4974331;28;41453;-78
2023/05/18 00:43:43;;;;;;;4.63;1.90;;;;;;;8.70;59.63;99692.38;4960689;28;40690;-79
2023/05/18 00:46:11;;;;;;;6.50;2.17;;;;;;;8.70;59.38;99697.66;4960738;28;41637;-78
2023/05/18 00:48:42;;;;;;;6.43;2.97;;;;;;;8.67;59.69;99703.03;4975423;28;42466;-78
2023/05/18 00:51:10;;;;;;;8.07;2.40;;;;;;;8.63;60.05;99694.41;4944616;28;41005;-79
2023/05/18 00:53:40;;;;;;;5.23;2.27;;;;;;;8.55;60.02;99690.34;4960939;28;42287;-79
2023/05/18 00:56:08;;;;;;;8.33;2.10;;;;;;;8.58;60.35;99701.66;4978004;28;43743;-76
2023/05/18 00:58:36;;;;;;;5.77;2.33;;;;;;;8.50;60.13;99687.91;4960523;28;41561;-78
2023/05/18 01:01:04;;;;;;;5.27;2.33;;;;;;;8.55;59.64;99706.19;4976964;28;41836;-79
2023/05/18 01:03:33;;;;;;;7.37;2.30;;;;;;;8.50;60.90;99697.63;4961819;28;41784;-78
2023/05/18 01:06:00;;;;;;;5.43;2.50;;;;;;;8.48;60.59;99699.44;4978698;28;42489;-76
2023/05/18 01:08:28;;;;;;;5.17;2.50;;;;;;;8.40;60.66;99680.44;4977651;28;43291;-78
2023/05/18 01:11:05;;;;;;;5.63;2.43;;;;;;;8.45;60.75;99694.28;4961485;28;39983;-77
2023/05/18 01:13:54;;;;;;;5.63;2.90;;;;;;;8.41;61.03;99688.25;4961753;28;41082;-78
2023/05/18 01:16:27;;;;;;;6.17;2.30;;;;;;;8.38;61.25;99690.19;4961611;28;42143;-79
2023/05/18 01:19:04;;;;;;;6.03;2.33;;;;;;;8.33;60.70;99685.09;4958499;28;42227;-79
2023/05/18 01:21:45;;;;;;;5.17;2.27;;;;;;;8.34;60.94;99693.88;4961409;28;40085;-77
2023/05/18 01:24:25;;;;;;;6.07;2.30;;;;;;;8.30;60.18;99691.31;4945541;28;41708;-77
2023/05/18 01:26:56;;;;;;;6.80;2.53;;;;;;;8.27;60.94;99688.81;4961314;28;42800;-77
2023/05/18 01:29:25;;;;;;;4.97;2.40;;;;;;;8.24;60.67;99691.56;4961622;28;42214;-78
2023/05/18 01:31:53;;;;;;;5.43;2.77;;;;;;;8.21;61.00;99690.81;4959451;28;42337;-79
2023/05/18 01:34:22;;;;;;;5.67;2.60;;;;;;;8.16;60.97;99691.00;4960308;28;40409;-78
2023/05/18 01:36:49;;;;;;;12.03;3.43;;;;;;;8.13;60.78;99699.06;4976278;28;42731;-79
2023/05/18 01:39:18;;;;;;;3.70;2.70;;;;;;;8.11;60.73;99700.88;4976385;28;42237;-78
2023/05/18 01:46:13;;;;;;;5.03;2.50;;;;;;;7.97;61.27;99692.63;4978148;28;42243;-78
2023/05/18 01:48:51;;;;;;;5.47;2.50;;;;;;;7.92;61.94;99690.16;4960151;28;43388;-79
2023/05/18 01:51:21;;;;;;;6.53;2.90;;;;;;;7.91;61.59;99684.97;4977050;28;42271;-80
2023/05/18 01:53:57;;;;;;;6.23;2.60;;;;;;;7.87;62.53;99680.72;4956136;28;39852;-78
2023/05/18 01:56:25;;;;;;;5.40;2.50;;;;;;;7.50;62.31;99629.41;4956897;28;41721;-80
2023/05/18 01:58:53;;;;;;;4.10;2.33;;;;;;;7.67;61.97;99656.88;4941090;28;42818;-78
2023/05/18 02:01:23;;;;;;;5.70;2.53;;;;;;;7.75;62.73;99675.94;4973362;28;42281;-78
2023/05/18 02:03:51;;;;;;;5.87;2.53;;;;;;;7.70;62.30;99669.94;4957639;28;39669;-78
2023/05/18 02:06:18;;;;;;;5.07;2.27;;;;;;;7.68;62.45;99674.41;4957580;28;40612;-80
2023/05/18 02:08:46;;;;;;;3.20;2.40;;;;;;;7.65;62.30;99679.84;4974193;28;42771;-77
2023/05/18 02:11:14;;;;;;;4.17;2.13;;;;;;;7.61;62.48;99686.13;4957705;28;42090;-78
2023/05/18 02:13:41;;;;;;;8.53;2.70;;;;;;;7.56;64.36;99662.56;4974261;28;41197;-79
2023/05/18 02:16:09;;;;;;;3.70;2.53;;;;;;;7.53;64.15;99671.47;4973926;28;42756;-78
2023/05/18 02:18:38;;;;;;;5.47;2.30;;;;;;;7.43;63.75;99654.25;4974154;28;43017;-79
2023/05/18 02:21:08;;;;;;;6.43;2.60;;;;;;;7.49;64.18;99664.59;4957501;28;41428;-78
2023/05/18 02:23:35;;;;;;;6.33;2.50;;;;;;;7.47;63.68;99666.41;4957549;28;40923;-76
2023/05/18 02:26:03;;;;;;;5.60;2.60;;;;;;;7.43;63.96;99667.41;4973563;28;42776;-76
2023/05/18 02:28:31;;;;;;;4.33;2.23;;;;;;;7.41;63.60;99671.91;4957217;28;41825;-79
2023/05/18 02:31:06;;;;;;;4.43;2.40;;;;;;;7.37;63.49;99670.31;4973599;28;43251;-77
2023/05/18 02:33:39;;;;;;;7.27;3.27;;;;;;;7.39;63.48;99673.75;4953475;28;40709;-76
2023/05/18 02:36:09;;;;;;;6.47;2.93;;;;;;;7.37;63.29;99675.56;4940132;28;40647;-77
2023/05/18 02:38:38;;;;;;;3.33;2.50;;;;;;;7.25;63.14;99654.94;4973824;28;42888;-79
2023/05/18 02:41:07;;;;;;;4.33;2.73;;;;;;;7.32;63.28;99672.22;4940192;28;42254;-79
2023/05/18 02:43:35;;;;;;;4.93;2.27;;;;;;;7.32;62.79;99672.22;4939954;28;39874;-76
2023/05/18 02:46:04;;;;;;;7.50;2.67;;;;;;;7.28;63.43;99668.00;4972481;28;42612;-76
2023/05/18 02:48:33;;;;;;;4.90;2.50;;;;;;;7.26;63.67;99667.19;4972493;28;42831;-78
2023/05/18 02:51:03;;;;;;;4.07;2.07;;;;;;;7.24;63.36;99666.38;4956070;28;42302;-77
2023/05/18 02:53:30;;;;;;;4.40;2.47;;;;;;;7.16;64.20;99645.59;4956077;28;39755;-78
2023/05/18 02:56:04;;;;;;;6.87;2.40;;;;;;;6.97;63.64;99619.97;4971173;28;41708;-77
2023/05/18 02:58:42;;;;;;;7.23;2.53;;;;;;;7.18;64.37;99658.69;4956124;28;42639;-77
2023/05/18 03:01:27;;;;;;;4.73;2.53;;;;;;;7.14;63.70;99662.38;4940247;28;42314;-76
2023/05/18 03:03:56;;;;;;;3.23;2.50;;;;;;;7.11;64.18;99659.84;4973916;28;41679;-77
2023/05/18 03:06:25;;;;;;;5.23;2.30;;;;;;;7.09;64.18;99659.03;4956754;28;40719;-78
2023/05/18 03:08:54;;;;;;;6.40;2.20;;;;;;;7.07;64.31;99661.72;4956865;28;41736;-77
2023/05/18 03:11:26;;;;;;;3.70;2.00;;;;;;;7.04;64.16;99660.97;4956496;28;41334;-78
2023/05/18 03:13:53;;;;;;;4.27;2.00;;;;;;;7.02;64.53;99657.53;4956604;28;40717;-77
2023/05/18 03:16:27;;;;;;;6.73;2.33;;;;;;;6.96;64.87;99642.78;4956750;28;42061;-78
2023/05/18 03:18:57;;;;;;;6.17;2.27;;;;;;;6.99;64.84;99655.88;4969893;28;43680;-78
2023/05/18 03:21:32;;;;;;;6.97;2.97;;;;;;;6.94;65.59;99652.53;4955686;28;43039;-77
2023/05/18 03:24:01;;;;;;;3.83;2.47;;;;;;;6.96;65.68;99652.47;4955049;28;39872;-79
2023/05/18 03:26:30;;;;;;;6.00;3.20;;;;;;;6.94;66.16;99649.88;4939380;28;40472;-78
2023/05/18 03:28:58;;;;;;;8.80;3.10;;;;;;;6.93;66.17;99652.56;4971796;28;43776;-78
2023/05/18 03:31:26;;;;;;;6.23;2.93;;;;;;;6.83;66.37;99642.38;4955478;28;42291;-78
2023/05/18 03:33:55;;;;;;;9.27;3.60;;;;;;;6.93;66.37;99657.84;4955739;28;41093;-76
2023/05/18 03:36:24;;;;;;;5.83;3.30;;;;;;;6.93;65.71;99657.84;4955276;28;40965;-79
2023/05/18 03:38:54;;;;;;;3.77;3.07;;;;;;;6.92;65.65;99661.41;4955406;28;41774;-77
2023/05/18 03:41:22;;;;;;;5.97;2.80;;;;;;;6.93;65.91;99661.34;4970834;28;41811;-77
2023/05/18 03:43:50;;;;;;;6.80;2.67;;;;;;;6.93;66.07;99668.38;4954666;28;39854;-79
2023/05/18 03:46:18;;;;;;;5.43;2.30;;;;;;;6.94;65.63;99664.81;4971291;28;42670;-77
2023/05/18 03:48:46;;;;;;;5.07;2.20;;;;;;;6.82;65.90;99651.19;4971424;28;43026;-78
2023/05/18 03:51:18;;;;;;;4.70;2.53;;;;;;;6.91;66.01;99660.56;4955221;28;40979;-77
2023/05/18 03:53:46;;;;;;;7.87;2.37;;;;;;;6.99;65.78;99663.75;4971429;28;40886;-77
2023/05/18 03:56:14;;;;;;;5.00;2.13;;;;;;;6.87;65.94;99634.38;4971064;28;41437;-79
2023/05/18 03:58:43;;;;;;;4.73;2.47;;;;;;;7.02;66.01;99665.44;4955201;28;41708;-76
2023/05/18 04:01:11;;;;;;;5.63;2.30;;;;;;;7.03;66.70;99672.44;4972019;28;43388;-78
2023/05/18 04:03:39;;;;;;;5.60;2.03;;;;;;;7.06;66.75;99669.66;4971281;28;40869;-78
2023/05/18 04:06:09;;;;;;;5.20;2.40;;;;;;;7.09;66.71;99667.78;4970901;28;42345;-78
2023/05/18 04:08:39;;;;;;;7.43;2.80;;;;;;;7.13;66.69;99671.19;4968328;28;42727;-76
2023/05/18 04:11:07;;;;;;;3.73;2.53;;;;;;;7.18;67.00;99671.84;4971864;28;42293;-78
2023/05/18 04:13:38;;;;;;;6.67;3.00;;;;;;;7.24;66.80;99678.69;4955562;28;39873;-77
2023/05/18 04:16:06;;;;;;;4.13;2.63;;;;;;;7.22;66.75;99668.22;4954623;28;41707;-77
2023/05/18 04:18:35;;;;;;;5.70;2.67;;;;;;;7.33;66.61;99673.94;4955792;28;42776;-78
2023/05/18 04:21:05;;;;;;;4.90;2.40;;;;;;;7.39;66.22;99684.28;4955444;28;41285;-78
2023/05/18 04:23:37;;;;;;;6.63;2.17;;;;;;;7.45;66.14;99689.31;4955713;28;41714;-77
2023/05/18 04:26:07;;;;;;;8.30;2.73;;;;;;;7.50;65.92;99692.66;4970768;28;41756;-77
2023/05/18 04:28:37;;;;;;;4.10;2.03;;;;;;;7.57;65.88;99691.50;4971545;28;43775;-77
2023/05/18 04:31:05;;;;;;;3.37;2.03;;;;;;;7.66;65.71;99697.38;4939398;28;42758;-78
2023/05/18 04:33:33;;;;;;;7.53;2.90;;;;;;;7.74;65.83;99700.56;4971344;28;40944;-79
2023/05/18 04:36:03;;;;;;;5.17;2.10;;;;;;;7.83;65.47;99700.22;4970500;28;42646;-78
2023/05/18 04:38:33;;;;;;;2.80;2.03;;;;;;;7.82;65.23;99686.16;4967814;28;43611;-78
2023/05/18 04:41:04;;;;;;;5.93;2.23;;;;;;;8.00;65.22;99702.22;4938260;28;41980;-77
2023/05/18 04:44:26;;;;;;;6.27;2.77;;;;;;;8.14;64.77;99706.03;4970208;28;40781;-76
2023/05/18 04:47:03;;;;;;;6.23;1.93;;;;;;;8.24;64.62;99711.81;4967466;28;41668;-80
2023/05/18 04:49:31;;;;;;;7.67;2.33;;;;;;;8.34;64.92;99712.34;4970898;28;42479;-78
2023/05/18 04:51:59;;;;;;;5.33;2.67;;;;;;;8.39;64.52;99697.19;4971984;28;42278;-77
2023/05/18 04:54:29;;;;;;;7.50;2.57;;;;;;;8.51;64.33;99704.63;4970704;28;41839;-77
2023/05/18 04:56:58;;;;;;;6.77;3.30;;;;;;;8.65;63.84;99708.38;4970237;28;42654;-77
2023/05/18 04:59:27;;;;;;;7.30;2.30;;;;;;;8.79;63.44;99715.75;4970539;28;42937;-78
2023/05/18 05:01:55;;;;;;;8.30;2.30;;;;;;;8.88;62.95;99717.16;4970362;28;42213;-77
2023/05/18 05:04:26;;;;;;;7.17;2.53;;;;;;;9.09;62.92;99724.19;4970539;28;40926;-77
2023/05/18 05:06:53;;;;;;;3.70;2.13;;;;;;;9.22;62.76;99721.88;4953860;28;40675;-79
2023/05/18 05:09:21;;;;;;;4.80;2.00;;;;;;;9.37;62.13;99721.22;4970405;28;42870;-78
2023/05/18 05:11:48;;;;;;;5.10;2.20;;;;;;;9.42;62.02;99703.34;4953948;28;41115;-77
2023/05/18 05:14:16;;;;;;;5.00;1.83;;;;;;;9.75;61.72;99739.81;4954126;28;41281;-76
2023/05/18 05:16:43;;;;;;;5.60;2.20;;;;;;;9.89;60.62;99745.34;4970230;28;41789;-77
2023/05/18 05:19:12;;;;;;;6.60;2.57;;;;;;;10.02;60.46;99749.09;4953933;28;41832;-79
2023/05/18 05:21:41;;;;;;;5.90;2.33;;;;;;;10.18;60.05;99747.50;4954358;28;42588;-78
2023/05/18 05:24:08;;;;;;;5.33;2.37;;;;;;;10.33;59.47;99744.16;4954938;28;39917;-80
2023/05/18 05:26:36;;;;;;;5.60;2.50;;;;;;;10.51;59.00;99745.03;4954925;28;41857;-77
2023/05/18 05:29:04;;;;;;;7.87;2.13;;;;;;;10.67;58.86;99743.38;4974586;28;43686;-77
2023/05/18 05:31:33;;;;;;;6.57;2.30;;;;;;;10.76;58.49;99734.13;4958214;28;42524;-78
2023/05/18 05:34:01;;;;;;;7.20;2.67;;;;;;;11.03;58.56;99750.44;4974264;28;41131;-76
2023/05/18 05:36:30;;;;;;;4.70;2.87;;;;;;;11.23;57.44;99752.13;4957775;28;41152;-77
2023/05/18 05:38:59;;;;;;;5.13;2.00;;;;;;;11.47;57.51;99751.72;4975457;28;42956;-77
2023/05/18 05:41:27;;;;;;;7.23;2.47;;;;;;;11.62;56.10;99763.28;4957986;28;42028;-79
2023/05/18 05:43:55;;;;;;;5.30;2.30;;;;;;;11.74;55.71;99754.72;4957696;28;40018;-81
2023/05/18 05:46:23;;;;;;;4.47;2.57;;;;;;;11.82;55.27;99763.16;4956015;28;40431;-80
2023/05/18 05:48:51;;;;;;;4.57;1.83;;;;;;;11.99;55.45;99762.22;4973325;28;42700;-78
2023/05/18 05:51:19;;;;;;;4.60;2.40;;;;;;;12.07;54.77;99761.84;4956998;28;41221;-78
2023/05/18 05:53:48;;;;;;;4.50;2.17;;;;;;;12.19;54.15;99766.47;4957163;28;40222;-80
2023/05/18 05:56:19;;;;;;;7.43;2.43;;;;;;;12.27;53.63;99774.88;4972589;28;42669;-80
2023/05/18 05:58:47;;;;;;;6.40;2.67;;;;;;;12.26;53.16;99772.31;4957065;28;42964;-79
2023/05/18 06:01:15;;;;;;;7.60;2.57;;;;;;;12.43;52.47;99778.41;4956728;28;42119;-79
2023/05/18 06:03:44;;;;;;;4.30;2.50;;;;;;;12.56;52.75;99774.13;4957161;28;40661;-78
2023/05/18 06:06:13;;;;;;;5.10;2.30;;;;;;;12.53;53.40;99739.75;4973964;28;41836;-81
2023/05/18 06:08:41;;;;;;;7.63;2.10;;;;;;;12.81;51.89;99781.59;4972965;28;43695;-77
2023/05/18 06:11:09;;;;;;;6.33;2.10;;;;;;;12.78;51.53;99765.78;4957651;28;41329;-79
2023/05/18 06:13:38;;;;;;;4.37;2.00;;;;;;;12.86;51.71;99773.31;4957924;28;41915;-78
2023/05/18 06:16:06;;;;;;;6.20;2.23;;;;;;;12.86;51.37;99782.16;4957423;28;40438;-79
2023/05/18 06:18:33;;;;;;;4.73;2.20;;;;;;;12.99;51.69;99784.97;4957560;28;44312;-80
2023/05/18 06:21:05;;;;;;;5.80;2.43;;;;;;;13.16;51.71;99789.34;4956559;28;42478;-79
2023/05/18 06:23:33;;;;;;;4.83;2.17;;;;;;;13.27;51.80;99774.47;4973924;28;41028;-82
2023/05/18 06:26:03;;;;;;;3.73;1.90;;;;;;;13.61;50.64;99786.63;4956988;28;40686;-79
2023/05/18 06:28:47;;;;;;;4.23;2.40;;;;;;;13.82;50.45;99792.47;4957474;28;41871;-77
2023/05/18 06:31:34;;;;;;;4.20;2.00;;;;;;;13.95;49.92;99792.59;4972772;28;43292;-79
2023/05/18 06:34:09;;;;;;;8.73;2.23;;;;;;;14.05;49.13;99779.56;4969079;28;40512;-81
2023/05/18 06:36:38;;;;;;;4.73;1.97;;;;;;;14.29;48.53;99799.34;4972598;28;41444;-79
2023/05/18 06:39:05;;;;;;;8.43;2.30;;;;;;;14.51;48.84;99797.06;4971980;28;42650;-79
2023/05/18 06:41:35;;;;;;;5.00;2.10;;;;;;;14.50;47.93;99779.34;4956225;28;42816;-80
2023/05/18 06:44:05;;;;;;;5.37;2.03;;;;;;;14.80;47.36;99799.69;4956470;28;40935;-78
2023/05/18 06:46:37;;;;;;;6.37;2.00;;;;;;;14.87;46.71;99798.31;4956059;28;41478;-80
2023/05/18 06:49:13;;;;;;;5.73;2.10;;;;;;;15.04;46.46;99806.06;4953643;28;42773;-79
2023/05/18 06:51:42;;;;;;;7.67;2.40;;;;;;;15.19;45.05;99823.75;4956022;28;42473;-78
2023/05/18 06:54:10;;;;;;;9.33;2.40;;;;;;;15.28;44.79;99825.81;4972407;28;40928;-79
2023/05/18 06:56:38;;;;;;;6.47;2.37;;;;;;;15.43;45.53;99822.13;4955468;28;41924;-78
2023/05/18 06:59:08;;;;;;;6.20;2.03;;;;;;;15.76;45.28;99807.47;4955310;28;43430;-78
2023/05/18 07:01:36;;;;;;;8.63;2.20;;;;;;;16.07;44.94;99820.38;4955469;28;42617;-82
2023/05/18 07:04:05;;;;;;;9.00;2.67;;;;;;;16.27;44.88;99820.81;4956093;28;39955;-82
2023/05/18 07:06:33;;;;;;;5.40;2.17;;;;;;;16.19;44.45;99815.19;4955433;28;41645;-78
2023/05/18 07:09:03;;;;;;;4.10;2.23;;;;;;;16.10;43.45;99825.53;4973231;28;42842;-81
2023/05/18 07:11:31;;;;;;;9.63;2.50;;;;;;;16.24;43.67;99815.69;4972011;28;42397;-81
2023/05/18 07:13:58;;;;;;;7.03;2.33;;;;;;;16.68;43.43;99842.00;4973344;28;41099;-79
2023/05/18 07:16:28;;;;;;;6.20;2.07;;;;;;;17.22;42.91;99837.94;4955502;28;40638;-80
2023/05/18 07:18:57;;;;;;;9.43;2.30;;;;;;;17.53;40.44;99859.75;4955606;28;41783;-80
2023/05/18 07:21:25;;;;;;;4.67;2.70;;;;;;;17.76;40.60;99858.06;4955833;28;42721;-79
2023/05/18 07:23:53;;;;;;;8.00;2.10;;;;;;;18.10;40.47;99849.13;4972265;28;40961;-79
2023/05/18 07:26:21;;;;;;;5.20;2.07;;;;;;;18.63;40.07;99855.66;4956030;28;42129;-79
2023/05/18 07:28:50;;;;;;;3.63;2.07;;;;;;;19.02;39.64;99850.75;4956296;28;42897;-78
2023/05/18 07:31:20;;;;;;;8.73;2.13;;;;;;;19.21;38.27;99855.44;4956437;28;41467;-80
2023/05/18 07:33:49;;;;;;;7.50;2.07;;;;;;;19.51;39.90;99842.19;4972521;28;40892;-83
2023/05/18 07:36:17;;;;;;;5.50;2.10;;;;;;;19.62;39.59;99826.03;4973912;28;41834;-78
2023/05/18 07:38:45;;;;;;;5.57;1.90;;;;;;;19.50;37.37;99856.63;4940080;28;41781;-79
2023/05/18 07:41:12;;;;;;;4.20;2.27;;;;;;;19.61;38.11;99851.19;4956079;28;43669;-80
2023/05/18 07:43:39;;;;;;;4.77;1.83;;;;;;;19.57;38.00;99847.03;4955895;28;40132;-80
2023/05/18 07:46:07;;;;;;;8.27;2.63;;;;;;;19.60;37.80;99845.94;4956314;28;40751;-80
2023/05/18 07:48:35;;;;;;;4.57;1.63;;;;;;;19.72;37.95;99856.50;4955286;28;41835;-80
2023/05/18 07:51:04;;;;;;;4.97;1.70;;;;;;;19.85;38.21;99848.25;4954554;28;43583;-79
2023/05/18 07:53:33;;;;;;;4.80;2.20;;;;;;;20.02;36.67;99839.63;4969917;28;42054;-80
2023/05/18 07:56:01;;;;;;;4.83;1.87;;;;;;;20.51;36.95;99848.84;4954622;28;41755;-79
2023/05/18 07:58:29;;;;;;;5.73;2.00;;;;;;;21.52;36.39;99851.38;4954873;28;41648;-81
2023/05/18 08:00:56;;;;;;;5.40;2.40;;;;;;;22.22;35.24;99850.22;4972464;28;43038;-81
2023/05/18 08:03:24;;;;;;;5.37;2.00;;;;;;;22.02;34.37;99835.03;4955880;28;40369;-80
2023/05/18 08:05:55;;;;;;;4.53;2.40;;;;;;;21.92;33.78;99859.31;4972043;28;41355;-81
2023/05/18 08:08:25;;;;;;;7.97;2.37;;;;;;;21.94;34.41;99853.78;4971858;28;42964;-80
2023/05/18 08:10:52;;;;;;;8.80;2.17;;;;;;;22.35;33.27;99866.94;4971594;28;42531;-79
2023/05/18 08:13:20;;;;;;;4.17;2.20;;;;;;;22.53;32.83;99867.88;4955738;28;41074;-80
2023/05/18 08:15:48;;;;;;;5.53;1.93;;;;;;;22.94;32.88;99868.44;4955674;28;41832;-81
2023/05/18 08:18:16;;;;;;;5.60;2.23;;;;;;;23.49;31.14;99874.63;4939256;28;42131;-82
2023/05/18 08:20:44;;;;;;;4.83;1.77;;;;;;;23.60;32.75;99825.78;4955513;28;41576;-80
2023/05/18 08:23:11;;;;;;;5.13;2.00;;;;;;;24.07;33.25;99846.28;4955535;28;39527;-81
2023/05/18 08:25:40;;;;;;;6.57;1.73;;;;;;;24.23;31.03;99863.50;4955437;28;41179;-80
2023/05/18 08:28:08;;;;;;;7.13;1.83;;;;;;;24.40;30.90;99867.19;4955812;28;43030;-81
2023/05/18 08:30:36;;;;;;;5.93;2.00;;;;;;;24.66;29.46;99869.88;4954698;28;43434;-84
2023/05/18 08:33:04;;;;;;;4.90;2.00;;;;;;;24.97;30.14;99865.63;4970062;28;41010;-79
2023/05/18 08:35:32;;;;;;;4.77;1.77;;;;;;;25.60;31.25;99848.00;4954330;28;40740;-82
2023/05/18 08:38:00;;;;;;;4.67;1.83;;;;;;;26.15;27.62;99877.25;4954389;28;41172;-80
2023/05/18 08:40:34;;;;;;;4.50;1.90;;;;;;;26.83;26.54;99870.31;4972029;28;42537;-79
2023/05/18 08:43:09;;;;;;;5.50;2.00;;;;;;;28.07;26.03;99853.97;4970848;28;40870;-80
2023/05/18 08:45:40;;;;;;;3.73;2.03;;;;;;;29.14;24.76;99860.00;4954565;28;41362;-80
2023/05/18 08:48:12;;;;;;;6.17;2.23;;;;;;;29.06;25.06;99833.66;4954674;28;42733;-81
2023/05/18 08:50:41;;;;;;;6.13;2.37;;;;;;;28.51;25.30;99855.97;4954794;28;42400;-81
2023/05/18 08:53:13;;;;;;;8.87;2.40;;;;;;;28.34;24.89;99870.78;4971637;28;40988;-80
2023/05/18 08:55:42;;;;;;;6.07;2.13;;;;;;;28.04;26.18;99827.13;4954168;28;41061;-80
2023/05/18 08:58:17;;;;;;;6.40;1.80;;;;;;;27.84;25.75;99847.69;4969795;28;42660;-81
2023/05/18 09:00:45;;;;;;;7.33;2.30;;;;;;;27.16;25.57;99848.47;4953900;28;42407;-80
2023/05/18 09:03:13;;;;;;;3.67;1.60;;;;;;;26.69;25.91;99846.63;4973824;28;40799;-80
2023/05/18 09:05:41;;;;;;;6.97;2.13;;;;;;;26.38;25.53;99822.06;4957578;28;41032;-81
2023/05/18 09:08:10;;;;;;;5.67;1.97;;;;;;;26.49;25.04;99845.31;4973695;28;42878;-78
2023/05/18 09:10:39;;;;;;;5.87;1.90;;;;;;;26.47;24.42;99852.78;4957412;28;41189;-79
2023/05/18 09:13:10;;;;;;;6.57;1.97;;;;;;;26.60;24.98;99835.94;4974926;28;41891;-82
2023/05/18 09:15:39;;;;;;;7.17;2.10;;;;;;;26.74;24.17;99865.09;4957406;28;40617;-84
2023/05/18 09:18:07;;;;;;;6.20;2.47;;;;;;;26.60;24.29;99836.78;4957167;28;42130;-79
2023/05/18 09:20:34;;;;;;;6.13;2.10;;;;;;;26.42;24.34;99849.75;4958148;28;42167;-79
2023/05/18 09:23:02;;;;;;;5.07;2.07;;;;;;;26.71;26.15;99839.09;4958098;28;39942;-81
2023/05/18 09:25:33;;;;;;;6.67;2.00;;;;;;;26.82;25.16;99852.34;4958138;28;40831;-80
2023/05/18 09:28:02;;;;;;;6.17;2.17;;;;;;;26.42;24.19;99860.63;4958115;28;41695;-82
2023/05/18 09:30:30;;;;;;;3.33;1.67;;;;;;;26.14;24.48;99851.97;4957786;28;42589;-79
2023/05/18 09:32:59;;;;;;;6.50;2.00;;;;;;;26.48;25.53;99839.03;4957875;28;40876;-79
2023/05/18 09:35:32;;;;;;;3.60;1.90;;;;;;;27.32;26.66;99815.75;4989364;28;41881;-80
2023/05/18 09:38:04;;;;;;;6.93;2.03;;;;;;;28.06;25.08;99827.78;4976618;28;42539;-79
2023/05/18 09:40:31;;;;;;;3.93;1.53;;;;;;;28.28;25.21;99817.03;4973701;28;43116;-80
2023/05/18 09:42:59;;;;;;;5.33;1.77;;;;;;;28.67;23.63;99844.03;4960889;28;41014;-79
2023/05/18 09:45:27;;;;;;;4.27;1.77;;;;;;;29.19;23.48;99838.44;4960265;28;42109;-79
2023/05/18 09:47:55;;;;;;;4.83;2.00;;;;;;;30.01;22.43;99844.41;4992718;28;42420;-81
2023/05/18 09:50:26;;;;;;;5.73;2.07;;;;;;;30.84;20.93;99859.94;4975904;28;42490;-82
2023/05/18 09:52:56;;;;;;;4.57;1.97;;;;;;;31.12;21.21;99848.13;4959864;28;39675;-80
2023/05/18 09:55:23;;;;;;;5.30;1.80;;;;;;;30.82;21.09;99848.34;4993138;28;43081;-82
2023/05/18 09:57:51;;;;;;;4.77;1.90;;;;;;;30.16;21.34;99855.25;4993014;28;43580;-79
2023/05/18 10:00:20;;;;;;;4.10;2.27;;;;;;;29.09;22.37;99840.63;4992849;28;42381;-78
2023/05/18 10:02:51;;;;;;;5.00;1.80;;;;;;;28.36;23.37;99819.66;4975292;28;40772;-79
2023/05/18 10:05:20;;;;;;;5.53;2.10;;;;;;;28.14;23.56;99833.16;4975465;28;40496;-80
2023/05/18 10:07:51;;;;;;;4.47;2.17;;;;;;;28.23;22.71;99831.22;4975310;28;41392;-78
2023/05/18 10:10:20;;;;;;;4.80;2.27;;;;;;;27.75;22.75;99837.91;4973308;28;43226;-77
2023/05/18 10:12:48;;;;;;;4.30;1.83;;;;;;;27.26;23.26;99821.91;5009639;28;40903;-79
2023/05/18 10:15:16;;;;;;;7.50;2.43;;;;;;;27.44;23.33;99824.34;4980263;28;42152;-77
2023/05/18 10:17:45;;;;;;;5.07;2.37;;;;;;;28.89;24.12;99811.25;4985992;28;41855;-78
2023/05/18 10:20:17;;;;;;;7.13;2.43;;;;;;;30.21;21.52;99826.28;5005024;28;43251;-80
2023/05/18 10:22:46;;;;;;;7.37;2.50;;;;;;;30.13;22.04;99831.91;4963162;28;40128;-78
2023/05/18 10:25:19;;;;;;;4.43;2.10;;;;;;;30.77;23.51;99811.75;5002381;28;41700;-78
2023/05/18 10:27:49;;;;;;;4.73;2.13;;;;;;;29.40;21.91;99833.06;4968658;28;43652;-78
2023/05/18 10:30:17;;;;;;;4.87;2.40;;;;;;;29.29;22.58;99818.03;4989172;28;42527;-78
2023/05/18 10:32:46;;;;;;;6.47;2.03;;;;;;;29.43;23.58;99808.09;4978711;28;40275;-78
2023/05/18 10:35:14;;;;;;;5.90;2.23;;;;;;;29.62;23.72;99796.53;4984939;28;41675;-79
2023/05/18 10:37:47;;;;;;;4.97;2.00;;;;;;;30.19;21.54;99822.03;4969832;28;41877;-78
2023/05/18 10:40:17;;;;;;;3.73;2.07;;;;;;;30.93;22.39;99801.28;5001220;28;43323;-79
2023/05/18 10:42:46;;;;;;;4.00;1.80;;;;;;;31.01;22.46;99776.50;4994950;28;40493;-78
2023/05/18 10:45:15;;;;;;;6.03;2.53;;;;;;;30.86;21.69;99805.88;4983559;28;40708;-77
2023/05/18 10:47:44;;;;;;;6.73;2.20;;;;;;;30.75;23.73;99781.84;4984740;28;42930;-80
2023/05/18 10:50:13;;;;;;;4.07;2.10;;;;;;;30.57;22.90;99804.25;5004304;28;42701;-77
2023/05/18 10:52:41;;;;;;;5.53;2.23;;;;;;;30.23;22.57;99805.06;4977690;28;41542;-78
2023/05/18 10:55:09;;;;;;;6.93;2.30;;;;;;;30.07;21.60;99805.34;4983520;28;41828;-79
2023/05/18 10:57:44;;;;;;;5.07;1.87;;;;;;;29.94;21.22;99816.13;5003307;28;43338;-80
2023/05/18 11:00:12;;;;;;;3.30;1.80;;;;;;;29.56;21.07;99810.13;5001298;28;42882;-79
2023/05/18 11:02:41;;;;;;;5.00;2.00;;;;;;;29.68;22.53;99789.44;4977671;28;40981;-77
2023/05/18 11:05:10;;;;;;;5.93;1.83;;;;;;;29.54;22.41;99801.31;4983281;28;42397;-79
2023/05/18 11:07:38;;;;;;;5.63;2.40;;;;;;;28.67;22.83;99801.28;5004116;28;43345;-77
2023/05/18 11:10:10;;;;;;;4.63;1.90;;;;;;;28.36;21.95;99804.16;5004403;28;43162;-78
2023/05/18 11:12:41;;;;;;;5.37;1.93;;;;;;;28.28;22.41;99795.25;4994701;28;42466;-79
2023/05/18 11:15:10;;;;;;;5.73;2.10;;;;;;;28.26;25.24;99759.16;4998837;28;42498;-78
2023/05/18 11:17:37;;;;;;;4.03;1.90;;;;;;;28.21;24.79;99763.28;5004277;28;43415;-78
2023/05/18 11:20:15;;;;;;;7.77;2.20;;;;;;;28.52;24.97;99756.81;4986613;28;43009;-78
2023/05/18 11:22:54;;;;;;;4.50;1.90;;;;;;;28.54;23.59;99754.75;4977659;28;40716;-78
2023/05/18 11:25:44;;;;;;;5.40;2.20;;;;;;;28.78;23.22;99761.75;4990533;28;43306;-78
2023/05/18 11:28:13;;;;;;;6.80;2.27;;;;;;;28.95;23.19;99764.09;4991474;28;43453;-79
2023/05/18 11:30:51;;;;;;;3.53;1.73;;;;;;;28.87;22.39;99780.56;4974772;28;43294;-80
2023/05/18 11:33:47;;;;;;;;;;;;;;;;;;;;;
2023/05/18 11:36:55;;;;;;;6.87;2.17;;;;;;;29.26;24.37;99733.81;4990782;28;43177;-82
2023/05/18 11:39:40;;;;;;;4.83;1.97;;;;;;;29.43;21.20;99785.41;4989057;28;44303;-79
2023/05/18 11:42:09;;;;;;;6.57;2.13;;;;;;;28.90;22.97;99769.28;4989709;28;43986;-80
2023/05/18 11:44:40;;;;;;;5.23;2.10;;;;;;;28.46;22.86;99765.72;4991617;28;41520;-80
2023/05/18 11:49:59;;;;;;;8.20;2.03;;;;;;;28.93;22.59;99733.44;4985962;28;43127;-81
2023/05/18 11:52:29;;;;;;;5.50;2.20;;;;;;;30.65;22.30;99713.03;4974870;28;44548;-80
2023/05/18 11:54:59;;;;;;;6.73;2.20;;;;;;;30.62;21.59;99733.41;4989674;28;41030;-81
2023/05/18 11:57:39;;;;;;;5.17;2.20;;;;;;;31.68;19.96;99739.16;4991187;28;42643;-82
2023/05/18 12:00:15;;;;;;;6.10;1.87;;;;;;;32.03;19.34;99781.72;4975024;28;43680;-80